sensor_id;sensor_type;location;lat;lon;timestamp;P1;durP1;ratioP1;P2;durP2;ratioP2
52868;SDS011;39100;53.480;6.158;2022-08-19T00:01:20;0.45;;;0.20;;
52868;SDS011;39100;53.480;6.158;2022-08-19T00:03:46;0.77;;;0.22;;
52868;SDS011;39100;53.480;6.158;2022-08-19T00:06:12;1.23;;;0.20;;
52868;SDS011;39100;53.480;6.158;2022-08-19T00:08:38;0.30;;;0.30;;
52868;SDS011;39100;53.480;6.158;2022-08-19T00:11:04;0.50;;;0.28;;
52868;SDS011;39100;53.480;6.158;2022-08-19T00:13:31;0.20;;;0.10;;
52868;SDS011;39100;53.480;6.158;2022-08-19T00:15:57;0.30;;;0.30;;
52868;SDS011;39100;53.480;6.158;2022-08-19T00:18:23;0.82;;;0.30;;
52868;SDS011;39100;53.480;6.158;2022-08-19T00:20:49;0.32;;;0.20;;
52868;SDS011;39100;53.480;6.158;2022-08-19T00:23:15;1.17;;;0.28;;
52868;SDS011;39100;53.480;6.158;2022-08-19T00:25:40;0.77;;;0.17;;
52868;SDS011;39100;53.480;6.158;2022-08-19T00:28:06;1.48;;;0.22;;
52868;SDS011;39100;53.480;6.158;2022-08-19T00:30:32;1.17;;;0.30;;
52868;SDS011;39100;53.480;6.158;2022-08-19T00:32:58;1.25;;;0.20;;
52868;SDS011;39100;53.480;6.158;2022-08-19T00:35:24;1.35;;;0.30;;
52868;SDS011;39100;53.480;6.158;2022-08-19T00:37:52;0.55;;;0.20;;
52868;SDS011;39100;53.480;6.158;2022-08-19T00:40:18;0.30;;;0.22;;
52868;SDS011;39100;53.480;6.158;2022-08-19T00:42:45;0.20;;;0.20;;
52868;SDS011;39100;53.480;6.158;2022-08-19T00:45:12;0.10;;;0.10;;
52868;SDS011;39100;53.480;6.158;2022-08-19T00:47:42;0.20;;;0.20;;
52868;SDS011;39100;53.480;6.158;2022-08-19T00:50:09;0.70;;;0.30;;
52868;SDS011;39100;53.480;6.158;2022-08-19T00:52:37;0.45;;;0.35;;
52868;SDS011;39100;53.480;6.158;2022-08-19T00:55:10;0.38;;;0.20;;
52868;SDS011;39100;53.480;6.158;2022-08-19T00:57:39;0.20;;;0.20;;
52868;SDS011;39100;53.480;6.158;2022-08-19T01:00:10;0.75;;;0.17;;
52868;SDS011;39100;53.480;6.158;2022-08-19T01:02:39;0.35;;;0.35;;
52868;SDS011;39100;53.480;6.158;2022-08-19T01:05:06;0.30;;;0.25;;
52868;SDS011;39100;53.480;6.158;2022-08-19T01:07:35;0.38;;;0.35;;
52868;SDS011;39100;53.480;6.158;2022-08-19T01:10:04;2.20;;;0.20;;
52868;SDS011;39100;53.480;6.158;2022-08-19T01:12:33;0.22;;;0.13;;
52868;SDS011;39100;53.480;6.158;2022-08-19T01:14:59;0.30;;;0.30;;
52868;SDS011;39100;53.480;6.158;2022-08-19T01:17:25;1.10;;;0.28;;
52868;SDS011;39100;53.480;6.158;2022-08-19T01:19:52;4.13;;;0.65;;
52868;SDS011;39100;53.480;6.158;2022-08-19T01:24:49;0.77;;;0.30;;
52868;SDS011;39100;53.480;6.158;2022-08-19T01:27:16;0.43;;;0.40;;
52868;SDS011;39100;53.480;6.158;2022-08-19T01:29:42;1.02;;;0.30;;
52868;SDS011;39100;53.480;6.158;2022-08-19T01:32:11;0.65;;;0.32;;
52868;SDS011;39100;53.480;6.158;2022-08-19T01:34:38;1.67;;;0.40;;
52868;SDS011;39100;53.480;6.158;2022-08-19T01:37:08;0.82;;;0.40;;
52868;SDS011;39100;53.480;6.158;2022-08-19T01:39:37;1.27;;;0.30;;
52868;SDS011;39100;53.480;6.158;2022-08-19T01:42:05;1.35;;;0.50;;
52868;SDS011;39100;53.480;6.158;2022-08-19T01:44:34;1.10;;;0.30;;
52868;SDS011;39100;53.480;6.158;2022-08-19T01:47:01;2.45;;;0.30;;
52868;SDS011;39100;53.480;6.158;2022-08-19T01:49:28;0.50;;;0.30;;
52868;SDS011;39100;53.480;6.158;2022-08-19T01:51:54;0.68;;;0.30;;
52868;SDS011;39100;53.480;6.158;2022-08-19T01:54:21;0.43;;;0.30;;
52868;SDS011;39100;53.480;6.158;2022-08-19T01:56:50;0.82;;;0.25;;
52868;SDS011;39100;53.480;6.158;2022-08-19T01:59:18;0.90;;;0.40;;
52868;SDS011;39100;53.480;6.158;2022-08-19T02:01:46;0.20;;;0.20;;
52868;SDS011;39100;53.480;6.158;2022-08-19T02:04:11;0.22;;;0.20;;
52868;SDS011;39100;53.480;6.158;2022-08-19T02:06:37;1.10;;;0.28;;
52868;SDS011;39100;53.480;6.158;2022-08-19T02:09:04;0.57;;;0.20;;
52868;SDS011;39100;53.480;6.158;2022-08-19T02:11:32;0.70;;;0.50;;
52868;SDS011;39100;53.480;6.158;2022-08-19T02:13:59;0.63;;;0.30;;
52868;SDS011;39100;53.480;6.158;2022-08-19T02:16:29;0.35;;;0.30;;
52868;SDS011;39100;53.480;6.158;2022-08-19T02:18:55;0.30;;;0.30;;
52868;SDS011;39100;53.480;6.158;2022-08-19T02:21:22;1.02;;;0.20;;
52868;SDS011;39100;53.480;6.158;2022-08-19T02:23:49;0.32;;;0.32;;
52868;SDS011;39100;53.480;6.158;2022-08-19T02:26:15;1.17;;;0.20;;
52868;SDS011;39100;53.480;6.158;2022-08-19T02:28:42;0.60;;;0.20;;
52868;SDS011;39100;53.480;6.158;2022-08-19T02:31:11;1.17;;;0.30;;
52868;SDS011;39100;53.480;6.158;2022-08-19T02:33:42;0.40;;;0.30;;
52868;SDS011;39100;53.480;6.158;2022-08-19T02:36:09;0.60;;;0.40;;
52868;SDS011;39100;53.480;6.158;2022-08-19T02:38:35;2.05;;;0.50;;
52868;SDS011;39100;53.480;6.158;2022-08-19T02:41:07;0.55;;;0.55;;
52868;SDS011;39100;53.480;6.158;2022-08-19T02:43:37;0.40;;;0.30;;
52868;SDS011;39100;53.480;6.158;2022-08-19T02:46:18;1.48;;;0.30;;
52868;SDS011;39100;53.480;6.158;2022-08-19T02:48:49;0.77;;;0.30;;
52868;SDS011;39100;53.480;6.158;2022-08-19T02:51:23;1.07;;;0.40;;
52868;SDS011;39100;53.480;6.158;2022-08-19T02:53:51;0.35;;;0.35;;
52868;SDS011;39100;53.480;6.158;2022-08-19T02:56:17;1.13;;;0.55;;
52868;SDS011;39100;53.480;6.158;2022-08-19T02:58:44;2.22;;;0.45;;
52868;SDS011;39100;53.480;6.158;2022-08-19T03:01:10;0.45;;;0.20;;
52868;SDS011;39100;53.480;6.158;2022-08-19T03:03:43;0.60;;;0.40;;
52868;SDS011;39100;53.480;6.158;2022-08-19T03:06:10;0.20;;;0.20;;
52868;SDS011;39100;53.480;6.158;2022-08-19T03:08:39;0.30;;;0.30;;
52868;SDS011;39100;53.480;6.158;2022-08-19T03:11:06;0.60;;;0.50;;
52868;SDS011;39100;53.480;6.158;2022-08-19T03:13:48;0.38;;;0.38;;
52868;SDS011;39100;53.480;6.158;2022-08-19T03:16:16;0.30;;;0.30;;
52868;SDS011;39100;53.480;6.158;2022-08-19T03:18:43;0.75;;;0.52;;
52868;SDS011;39100;53.480;6.158;2022-08-19T03:21:09;1.02;;;0.50;;
52868;SDS011;39100;53.480;6.158;2022-08-19T03:23:39;1.45;;;0.68;;
52868;SDS011;39100;53.480;6.158;2022-08-19T03:26:05;0.90;;;0.90;;
52868;SDS011;39100;53.480;6.158;2022-08-19T03:28:31;0.52;;;0.50;;
52868;SDS011;39100;53.480;6.158;2022-08-19T03:31:08;0.85;;;0.50;;
52868;SDS011;39100;53.480;6.158;2022-08-19T03:33:37;1.60;;;0.70;;
52868;SDS011;39100;53.480;6.158;2022-08-19T03:38:32;1.77;;;0.70;;
52868;SDS011;39100;53.480;6.158;2022-08-19T03:40:58;0.70;;;0.70;;
52868;SDS011;39100;53.480;6.158;2022-08-19T03:43:27;0.63;;;0.50;;
52868;SDS011;39100;53.480;6.158;2022-08-19T03:46:00;1.27;;;0.77;;
52868;SDS011;39100;53.480;6.158;2022-08-19T03:48:28;1.13;;;0.40;;
52868;SDS011;39100;53.480;6.158;2022-08-19T03:50:55;0.40;;;0.40;;
52868;SDS011;39100;53.480;6.158;2022-08-19T03:53:21;0.60;;;0.55;;
52868;SDS011;39100;53.480;6.158;2022-08-19T03:55:46;1.02;;;0.70;;
52868;SDS011;39100;53.480;6.158;2022-08-19T03:58:12;0.43;;;0.32;;
52868;SDS011;39100;53.480;6.158;2022-08-19T04:00:41;0.50;;;0.45;;
52868;SDS011;39100;53.480;6.158;2022-08-19T04:03:07;1.13;;;0.50;;
52868;SDS011;39100;53.480;6.158;2022-08-19T04:05:33;0.98;;;0.38;;
52868;SDS011;39100;53.480;6.158;2022-08-19T04:07:58;0.57;;;0.55;;
52868;SDS011;39100;53.480;6.158;2022-08-19T04:10:25;0.50;;;0.43;;
52868;SDS011;39100;53.480;6.158;2022-08-19T04:12:52;2.83;;;0.47;;
52868;SDS011;39100;53.480;6.158;2022-08-19T04:15:18;0.57;;;0.55;;
52868;SDS011;39100;53.480;6.158;2022-08-19T04:17:43;1.10;;;0.80;;
52868;SDS011;39100;53.480;6.158;2022-08-19T04:20:09;1.88;;;1.50;;
52868;SDS011;39100;53.480;6.158;2022-08-19T04:22:35;1.45;;;1.20;;
52868;SDS011;39100;53.480;6.158;2022-08-19T04:25:00;1.20;;;1.08;;
52868;SDS011;39100;53.480;6.158;2022-08-19T04:27:26;1.40;;;1.00;;
52868;SDS011;39100;53.480;6.158;2022-08-19T04:29:52;1.25;;;0.98;;
52868;SDS011;39100;53.480;6.158;2022-08-19T04:32:20;0.75;;;0.55;;
52868;SDS011;39100;53.480;6.158;2022-08-19T04:34:45;0.70;;;0.50;;
52868;SDS011;39100;53.480;6.158;2022-08-19T04:37:11;0.40;;;0.40;;
52868;SDS011;39100;53.480;6.158;2022-08-19T04:39:37;1.98;;;1.00;;
52868;SDS011;39100;53.480;6.158;2022-08-19T04:42:22;0.50;;;0.50;;
52868;SDS011;39100;53.480;6.158;2022-08-19T04:45:09;0.50;;;0.50;;
52868;SDS011;39100;53.480;6.158;2022-08-19T04:47:37;0.68;;;0.50;;
52868;SDS011;39100;53.480;6.158;2022-08-19T04:50:04;0.57;;;0.50;;
52868;SDS011;39100;53.480;6.158;2022-08-19T04:52:30;0.60;;;0.40;;
52868;SDS011;39100;53.480;6.158;2022-08-19T04:54:57;0.82;;;0.55;;
52868;SDS011;39100;53.480;6.158;2022-08-19T04:57:23;0.70;;;0.60;;
52868;SDS011;39100;53.480;6.158;2022-08-19T04:59:49;1.02;;;0.57;;
52868;SDS011;39100;53.480;6.158;2022-08-19T05:02:19;0.60;;;0.50;;
52868;SDS011;39100;53.480;6.158;2022-08-19T05:04:45;0.85;;;0.57;;
52868;SDS011;39100;53.480;6.158;2022-08-19T05:07:10;0.50;;;0.50;;
52868;SDS011;39100;53.480;6.158;2022-08-19T05:09:36;0.75;;;0.45;;
52868;SDS011;39100;53.480;6.158;2022-08-19T05:12:02;0.50;;;0.40;;
52868;SDS011;39100;53.480;6.158;2022-08-19T05:14:28;1.77;;;1.05;;
52868;SDS011;39100;53.480;6.158;2022-08-19T05:16:54;1.13;;;0.70;;
52868;SDS011;39100;53.480;6.158;2022-08-19T05:19:19;0.63;;;0.63;;
52868;SDS011;39100;53.480;6.158;2022-08-19T05:22:03;0.95;;;0.52;;
52868;SDS011;39100;53.480;6.158;2022-08-19T05:24:48;0.95;;;0.80;;
52868;SDS011;39100;53.480;6.158;2022-08-19T05:27:13;1.13;;;0.65;;
52868;SDS011;39100;53.480;6.158;2022-08-19T05:29:39;0.82;;;0.73;;
52868;SDS011;39100;53.480;6.158;2022-08-19T05:32:05;1.15;;;0.60;;
52868;SDS011;39100;53.480;6.158;2022-08-19T05:34:35;1.95;;;0.50;;
52868;SDS011;39100;53.480;6.158;2022-08-19T05:37:03;1.13;;;0.80;;
52868;SDS011;39100;53.480;6.158;2022-08-19T05:39:30;0.40;;;0.40;;
52868;SDS011;39100;53.480;6.158;2022-08-19T05:41:58;0.77;;;0.77;;
52868;SDS011;39100;53.480;6.158;2022-08-19T05:44:32;0.65;;;0.50;;
52868;SDS011;39100;53.480;6.158;2022-08-19T05:47:00;0.50;;;0.50;;
52868;SDS011;39100;53.480;6.158;2022-08-19T05:49:28;0.82;;;0.80;;
52868;SDS011;39100;53.480;6.158;2022-08-19T05:51:54;1.67;;;1.10;;
52868;SDS011;39100;53.480;6.158;2022-08-19T05:54:20;1.58;;;1.15;;
52868;SDS011;39100;53.480;6.158;2022-08-19T05:56:48;1.00;;;0.90;;
52868;SDS011;39100;53.480;6.158;2022-08-19T05:59:16;0.90;;;0.90;;
52868;SDS011;39100;53.480;6.158;2022-08-19T06:01:43;1.42;;;1.00;;
52868;SDS011;39100;53.480;6.158;2022-08-19T06:04:11;1.55;;;0.95;;
52868;SDS011;39100;53.480;6.158;2022-08-19T06:06:38;1.98;;;1.20;;
52868;SDS011;39100;53.480;6.158;2022-08-19T06:09:05;1.05;;;0.80;;
52868;SDS011;39100;53.480;6.158;2022-08-19T06:14:10;1.25;;;0.90;;
52868;SDS011;39100;53.480;6.158;2022-08-19T06:16:39;1.50;;;1.40;;
52868;SDS011;39100;53.480;6.158;2022-08-19T06:19:07;1.10;;;1.00;;
52868;SDS011;39100;53.480;6.158;2022-08-19T06:21:36;2.70;;;0.90;;
52868;SDS011;39100;53.480;6.158;2022-08-19T06:24:06;1.15;;;1.10;;
52868;SDS011;39100;53.480;6.158;2022-08-19T06:26:35;1.13;;;0.90;;
52868;SDS011;39100;53.480;6.158;2022-08-19T06:29:03;1.20;;;1.00;;
52868;SDS011;39100;53.480;6.158;2022-08-19T06:31:31;1.13;;;1.02;;
52868;SDS011;39100;53.480;6.158;2022-08-19T06:33:59;1.10;;;1.00;;
52868;SDS011;39100;53.480;6.158;2022-08-19T06:36:28;1.15;;;1.05;;
52868;SDS011;39100;53.480;6.158;2022-08-19T06:39:02;1.60;;;0.90;;
52868;SDS011;39100;53.480;6.158;2022-08-19T06:41:30;1.77;;;1.20;;
52868;SDS011;39100;53.480;6.158;2022-08-19T06:43:58;1.63;;;1.00;;
52868;SDS011;39100;53.480;6.158;2022-08-19T06:46:24;2.05;;;1.08;;
52868;SDS011;39100;53.480;6.158;2022-08-19T06:48:51;0.82;;;0.82;;
52868;SDS011;39100;53.480;6.158;2022-08-19T06:51:18;1.13;;;0.90;;
52868;SDS011;39100;53.480;6.158;2022-08-19T06:53:48;0.68;;;0.60;;
52868;SDS011;39100;53.480;6.158;2022-08-19T06:56:16;2.03;;;0.85;;
52868;SDS011;39100;53.480;6.158;2022-08-19T06:58:44;2.17;;;1.23;;
52868;SDS011;39100;53.480;6.158;2022-08-19T07:01:11;1.63;;;0.93;;
52868;SDS011;39100;53.480;6.158;2022-08-19T07:03:37;0.88;;;0.88;;
52868;SDS011;39100;53.480;6.158;2022-08-19T07:06:04;1.75;;;1.20;;
52868;SDS011;39100;53.480;6.158;2022-08-19T07:08:35;1.23;;;1.13;;
52868;SDS011;39100;53.480;6.158;2022-08-19T07:11:05;0.95;;;0.90;;
52868;SDS011;39100;53.480;6.158;2022-08-19T07:13:36;0.70;;;0.70;;
52868;SDS011;39100;53.480;6.158;2022-08-19T07:16:06;0.85;;;0.85;;
52868;SDS011;39100;53.480;6.158;2022-08-19T07:18:32;1.25;;;1.10;;
52868;SDS011;39100;53.480;6.158;2022-08-19T07:21:09;2.05;;;1.85;;
52868;SDS011;39100;53.480;6.158;2022-08-19T07:23:37;2.03;;;1.17;;
52868;SDS011;39100;53.480;6.158;2022-08-19T07:26:06;1.52;;;1.42;;
52868;SDS011;39100;53.480;6.158;2022-08-19T07:28:33;1.63;;;1.53;;
52868;SDS011;39100;53.480;6.158;2022-08-19T07:30:59;1.92;;;1.80;;
52868;SDS011;39100;53.480;6.158;2022-08-19T07:33:26;2.40;;;1.42;;
52868;SDS011;39100;53.480;6.158;2022-08-19T07:35:52;1.70;;;1.60;;
52868;SDS011;39100;53.480;6.158;2022-08-19T07:38:18;3.30;;;1.63;;
52868;SDS011;39100;53.480;6.158;2022-08-19T07:40:44;1.42;;;1.33;;
52868;SDS011;39100;53.480;6.158;2022-08-19T07:43:10;2.92;;;1.30;;
52868;SDS011;39100;53.480;6.158;2022-08-19T07:45:36;1.40;;;1.30;;
52868;SDS011;39100;53.480;6.158;2022-08-19T07:48:02;1.80;;;1.63;;
52868;SDS011;39100;53.480;6.158;2022-08-19T07:50:28;1.73;;;1.42;;
52868;SDS011;39100;53.480;6.158;2022-08-19T07:52:54;0.95;;;0.95;;
52868;SDS011;39100;53.480;6.158;2022-08-19T07:55:22;1.90;;;0.90;;
52868;SDS011;39100;53.480;6.158;2022-08-19T07:57:49;1.02;;;0.80;;
52868;SDS011;39100;53.480;6.158;2022-08-19T08:00:17;1.70;;;1.35;;
52868;SDS011;39100;53.480;6.158;2022-08-19T08:02:43;1.52;;;1.13;;
52868;SDS011;39100;53.480;6.158;2022-08-19T08:05:09;1.10;;;0.98;;
52868;SDS011;39100;53.480;6.158;2022-08-19T08:07:54;2.47;;;1.50;;
52868;SDS011;39100;53.480;6.158;2022-08-19T08:10:38;2.15;;;1.70;;
52868;SDS011;39100;53.480;6.158;2022-08-19T08:13:04;2.75;;;1.70;;
52868;SDS011;39100;53.480;6.158;2022-08-19T08:15:30;2.92;;;1.60;;
52868;SDS011;39100;53.480;6.158;2022-08-19T08:17:56;2.10;;;1.58;;
52868;SDS011;39100;53.480;6.158;2022-08-19T08:20:22;2.63;;;2.28;;
52868;SDS011;39100;53.480;6.158;2022-08-19T08:22:48;1.85;;;1.63;;
52868;SDS011;39100;53.480;6.158;2022-08-19T08:25:34;2.88;;;1.98;;
52868;SDS011;39100;53.480;6.158;2022-08-19T08:28:01;2.95;;;2.05;;
52868;SDS011;39100;53.480;6.158;2022-08-19T08:30:28;2.65;;;1.90;;
52868;SDS011;39100;53.480;6.158;2022-08-19T08:32:54;2.03;;;1.88;;
52868;SDS011;39100;53.480;6.158;2022-08-19T08:35:22;2.20;;;1.55;;
52868;SDS011;39100;53.480;6.158;2022-08-19T08:37:49;2.17;;;1.98;;
52868;SDS011;39100;53.480;6.158;2022-08-19T08:40:20;4.47;;;2.60;;
52868;SDS011;39100;53.480;6.158;2022-08-19T08:43:00;3.00;;;2.30;;
52868;SDS011;39100;53.480;6.158;2022-08-19T08:45:32;1.88;;;1.77;;
52868;SDS011;39100;53.480;6.158;2022-08-19T08:48:15;1.90;;;1.70;;
52868;SDS011;39100;53.480;6.158;2022-08-19T08:50:45;2.75;;;2.55;;
52868;SDS011;39100;53.480;6.158;2022-08-19T08:53:17;2.10;;;1.90;;
52868;SDS011;39100;53.480;6.158;2022-08-19T08:55:44;4.30;;;2.50;;
52868;SDS011;39100;53.480;6.158;2022-08-19T08:58:12;1.70;;;1.60;;
52868;SDS011;39100;53.480;6.158;2022-08-19T09:00:46;2.37;;;2.17;;
52868;SDS011;39100;53.480;6.158;2022-08-19T09:17:02;2.63;;;2.42;;
52868;SDS011;39100;53.480;6.158;2022-08-19T09:19:32;2.83;;;2.63;;
52868;SDS011;39100;53.480;6.158;2022-08-19T09:21:59;2.00;;;1.80;;
52868;SDS011;39100;53.480;6.158;2022-08-19T09:24:25;2.38;;;2.17;;
52868;SDS011;39100;53.480;6.158;2022-08-19T09:26:51;2.53;;;2.03;;
52868;SDS011;39100;53.480;6.158;2022-08-19T09:29:17;4.10;;;2.83;;
52868;SDS011;39100;53.480;6.158;2022-08-19T09:31:42;3.55;;;2.83;;
52868;SDS011;39100;53.480;6.158;2022-08-19T09:34:08;3.03;;;2.75;;
52868;SDS011;39100;53.480;6.158;2022-08-19T09:36:33;3.00;;;2.70;;
52868;SDS011;39100;53.480;6.158;2022-08-19T09:39:00;5.65;;;2.75;;
52868;SDS011;39100;53.480;6.158;2022-08-19T09:41:30;2.95;;;2.60;;
52868;SDS011;39100;53.480;6.158;2022-08-19T09:43:57;2.60;;;2.25;;
52868;SDS011;39100;53.480;6.158;2022-08-19T09:46:24;2.92;;;2.60;;
52868;SDS011;39100;53.480;6.158;2022-08-19T09:48:51;3.67;;;2.45;;
52868;SDS011;39100;53.480;6.158;2022-08-19T09:51:18;2.75;;;2.47;;
52868;SDS011;39100;53.480;6.158;2022-08-19T09:53:47;2.92;;;2.72;;
52868;SDS011;39100;53.480;6.158;2022-08-19T09:56:18;3.38;;;3.08;;
52868;SDS011;39100;53.480;6.158;2022-08-19T09:58:44;3.10;;;2.60;;
52868;SDS011;39100;53.480;6.158;2022-08-19T10:01:15;3.13;;;2.70;;
52868;SDS011;39100;53.480;6.158;2022-08-19T10:03:47;3.58;;;3.28;;
52868;SDS011;39100;53.480;6.158;2022-08-19T10:06:15;4.30;;;3.10;;
52868;SDS011;39100;53.480;6.158;2022-08-19T10:08:41;3.58;;;3.28;;
52868;SDS011;39100;53.480;6.158;2022-08-19T10:11:07;2.95;;;2.67;;
52868;SDS011;39100;53.480;6.158;2022-08-19T10:13:34;3.42;;;3.13;;
52868;SDS011;39100;53.480;6.158;2022-08-19T10:16:08;3.47;;;3.15;;
52868;SDS011;39100;53.480;6.158;2022-08-19T10:18:36;3.80;;;3.40;;
52868;SDS011;39100;53.480;6.158;2022-08-19T10:21:15;3.45;;;3.15;;
52868;SDS011;39100;53.480;6.158;2022-08-19T10:23:44;3.40;;;3.10;;
52868;SDS011;39100;53.480;6.158;2022-08-19T10:26:16;3.65;;;3.33;;
52868;SDS011;39100;53.480;6.158;2022-08-19T10:28:47;3.50;;;3.20;;
52868;SDS011;39100;53.480;6.158;2022-08-19T10:31:18;3.67;;;3.38;;
52868;SDS011;39100;53.480;6.158;2022-08-19T10:33:46;3.67;;;3.08;;
52868;SDS011;39100;53.480;6.158;2022-08-19T10:36:20;4.40;;;4.00;;
52868;SDS011;39100;53.480;6.158;2022-08-19T10:38:48;5.07;;;4.57;;
52868;SDS011;39100;53.480;6.158;2022-08-19T10:43:43;4.57;;;3.78;;
52868;SDS011;39100;53.480;6.158;2022-08-19T10:46:10;5.38;;;4.13;;
52868;SDS011;39100;53.480;6.158;2022-08-19T10:48:37;4.03;;;3.10;;
52868;SDS011;39100;53.480;6.158;2022-08-19T10:51:03;3.70;;;2.70;;
52868;SDS011;39100;53.480;6.158;2022-08-19T10:53:48;3.38;;;2.90;;
52868;SDS011;39100;53.480;6.158;2022-08-19T10:56:14;2.58;;;2.30;;
52868;SDS011;39100;53.480;6.158;2022-08-19T10:58:58;2.78;;;2.58;;
52868;SDS011;39100;53.480;6.158;2022-08-19T11:01:25;2.75;;;2.10;;
52868;SDS011;39100;53.480;6.158;2022-08-19T11:03:52;3.10;;;2.30;;
52868;SDS011;39100;53.480;6.158;2022-08-19T11:06:18;3.40;;;2.45;;
52868;SDS011;39100;53.480;6.158;2022-08-19T11:08:44;2.60;;;2.35;;
52868;SDS011;39100;53.480;6.158;2022-08-19T11:11:10;3.63;;;2.45;;
52868;SDS011;39100;53.480;6.158;2022-08-19T11:13:37;3.15;;;2.50;;
52868;SDS011;39100;53.480;6.158;2022-08-19T11:16:15;1.60;;;1.50;;
52868;SDS011;39100;53.480;6.158;2022-08-19T11:18:46;2.70;;;2.15;;
52868;SDS011;39100;53.480;6.158;2022-08-19T11:21:21;3.17;;;2.67;;
52868;SDS011;39100;53.480;6.158;2022-08-19T11:24:12;3.35;;;2.45;;
52868;SDS011;39100;53.480;6.158;2022-08-19T11:26:40;5.90;;;2.97;;
52868;SDS011;39100;53.480;6.158;2022-08-19T11:29:08;3.13;;;2.83;;
52868;SDS011;39100;53.480;6.158;2022-08-19T11:31:36;2.92;;;2.20;;
52868;SDS011;39100;53.480;6.158;2022-08-19T11:34:05;3.08;;;2.35;;
52868;SDS011;39100;53.480;6.158;2022-08-19T11:36:32;3.00;;;2.70;;
52868;SDS011;39100;53.480;6.158;2022-08-19T11:38:58;6.35;;;2.58;;
52868;SDS011;39100;53.480;6.158;2022-08-19T11:41:24;4.35;;;2.28;;
52868;SDS011;39100;53.480;6.158;2022-08-19T11:43:51;3.00;;;2.20;;
52868;SDS011;39100;53.480;6.158;2022-08-19T11:46:20;2.13;;;1.80;;
52868;SDS011;39100;53.480;6.158;2022-08-19T11:48:47;4.38;;;2.53;;
52868;SDS011;39100;53.480;6.158;2022-08-19T11:51:15;3.20;;;1.77;;
52868;SDS011;39100;53.480;6.158;2022-08-19T11:53:43;1.67;;;1.20;;
52868;SDS011;39100;53.480;6.158;2022-08-19T11:56:09;5.03;;;2.22;;
52868;SDS011;39100;53.480;6.158;2022-08-19T11:58:36;2.92;;;1.85;;
52868;SDS011;39100;53.480;6.158;2022-08-19T12:01:05;2.10;;;1.67;;
52868;SDS011;39100;53.480;6.158;2022-08-19T12:03:32;3.53;;;1.52;;
52868;SDS011;39100;53.480;6.158;2022-08-19T12:05:58;1.60;;;1.33;;
52868;SDS011;39100;53.480;6.158;2022-08-19T12:08:28;1.80;;;1.52;;
52868;SDS011;39100;53.480;6.158;2022-08-19T12:10:53;1.67;;;1.58;;
52868;SDS011;39100;53.480;6.158;2022-08-19T12:13:19;2.55;;;1.55;;
52868;SDS011;39100;53.480;6.158;2022-08-19T12:15:45;3.83;;;1.52;;
52868;SDS011;39100;53.480;6.158;2022-08-19T12:18:11;1.90;;;1.55;;
52868;SDS011;39100;53.480;6.158;2022-08-19T12:20:39;2.60;;;1.50;;
52868;SDS011;39100;53.480;6.158;2022-08-19T12:23:06;1.67;;;1.58;;
52868;SDS011;39100;53.480;6.158;2022-08-19T12:25:34;2.58;;;1.65;;
52868;SDS011;39100;53.480;6.158;2022-08-19T12:28:00;4.43;;;1.90;;
52868;SDS011;39100;53.480;6.158;2022-08-19T12:30:26;2.42;;;1.60;;
52868;SDS011;39100;53.480;6.158;2022-08-19T12:32:52;3.58;;;1.80;;
52868;SDS011;39100;53.480;6.158;2022-08-19T12:35:18;2.85;;;1.75;;
52868;SDS011;39100;53.480;6.158;2022-08-19T12:37:47;6.10;;;2.30;;
52868;SDS011;39100;53.480;6.158;2022-08-19T12:40:15;2.60;;;1.80;;
52868;SDS011;39100;53.480;6.158;2022-08-19T12:42:42;4.18;;;3.00;;
52868;SDS011;39100;53.480;6.158;2022-08-19T12:45:11;3.97;;;2.20;;
52868;SDS011;39100;53.480;6.158;2022-08-19T12:47:38;4.20;;;2.35;;
52868;SDS011;39100;53.480;6.158;2022-08-19T12:50:04;2.67;;;2.45;;
52868;SDS011;39100;53.480;6.158;2022-08-19T12:52:33;3.70;;;2.15;;
52868;SDS011;39100;53.480;6.158;2022-08-19T12:55:02;3.95;;;2.55;;
52868;SDS011;39100;53.480;6.158;2022-08-19T12:57:30;2.83;;;2.20;;
52868;SDS011;39100;53.480;6.158;2022-08-19T12:59:57;3.67;;;2.03;;
52868;SDS011;39100;53.480;6.158;2022-08-19T13:02:24;2.83;;;2.03;;
52868;SDS011;39100;53.480;6.158;2022-08-19T13:04:50;3.17;;;1.90;;
52868;SDS011;39100;53.480;6.158;2022-08-19T13:07:15;4.85;;;2.20;;
52868;SDS011;39100;53.480;6.158;2022-08-19T13:09:41;3.22;;;1.83;;
52868;SDS011;39100;53.480;6.158;2022-08-19T13:12:07;2.47;;;2.28;;
52868;SDS011;39100;53.480;6.158;2022-08-19T13:14:37;3.30;;;1.77;;
52868;SDS011;39100;53.480;6.158;2022-08-19T13:17:05;3.72;;;2.20;;
52868;SDS011;39100;53.480;6.158;2022-08-19T13:19:31;3.45;;;2.17;;
52868;SDS011;39100;53.480;6.158;2022-08-19T13:21:56;2.70;;;2.00;;
52868;SDS011;39100;53.480;6.158;2022-08-19T13:24:22;3.38;;;2.42;;
52868;SDS011;39100;53.480;6.158;2022-08-19T13:26:48;3.72;;;2.20;;
52868;SDS011;39100;53.480;6.158;2022-08-19T13:29:14;2.30;;;2.10;;
52868;SDS011;39100;53.480;6.158;2022-08-19T13:31:58;2.28;;;1.95;;
52868;SDS011;39100;53.480;6.158;2022-08-19T13:34:42;3.08;;;2.00;;
52868;SDS011;39100;53.480;6.158;2022-08-19T13:37:08;3.08;;;1.92;;
52868;SDS011;39100;53.480;6.158;2022-08-19T13:39:34;2.20;;;1.67;;
52868;SDS011;39100;53.480;6.158;2022-08-19T13:42:00;3.13;;;2.25;;
52868;SDS011;39100;53.480;6.158;2022-08-19T13:44:27;2.92;;;2.20;;
52868;SDS011;39100;53.480;6.158;2022-08-19T13:47:00;2.88;;;2.08;;
52868;SDS011;39100;53.480;6.158;2022-08-19T13:49:30;2.83;;;2.35;;
52868;SDS011;39100;53.480;6.158;2022-08-19T13:51:56;2.38;;;2.00;;
52868;SDS011;39100;53.480;6.158;2022-08-19T13:54:22;1.95;;;1.73;;
52868;SDS011;39100;53.480;6.158;2022-08-19T13:56:47;4.22;;;2.00;;
52868;SDS011;39100;53.480;6.158;2022-08-19T13:59:13;2.22;;;1.88;;
52868;SDS011;39100;53.480;6.158;2022-08-19T14:01:39;3.70;;;1.83;;
52868;SDS011;39100;53.480;6.158;2022-08-19T14:04:06;4.55;;;1.67;;
52868;SDS011;39100;53.480;6.158;2022-08-19T14:06:32;3.00;;;1.63;;
52868;SDS011;39100;53.480;6.158;2022-08-19T14:08:58;2.70;;;1.85;;
52868;SDS011;39100;53.480;6.158;2022-08-19T14:11:23;2.95;;;1.70;;
52868;SDS011;39100;53.480;6.158;2022-08-19T14:13:50;1.80;;;1.30;;
52868;SDS011;39100;53.480;6.158;2022-08-19T14:16:15;2.10;;;1.75;;
52868;SDS011;39100;53.480;6.158;2022-08-19T14:18:41;2.17;;;1.40;;
52868;SDS011;39100;53.480;6.158;2022-08-19T14:21:08;3.45;;;1.80;;
52868;SDS011;39100;53.480;6.158;2022-08-19T14:23:40;1.40;;;1.30;;
52868;SDS011;39100;53.480;6.158;2022-08-19T14:26:09;1.70;;;1.48;;
52868;SDS011;39100;53.480;6.158;2022-08-19T14:28:37;4.07;;;2.15;;
52868;SDS011;39100;53.480;6.158;2022-08-19T14:31:05;1.77;;;1.55;;
52868;SDS011;39100;53.480;6.158;2022-08-19T14:33:31;1.70;;;1.60;;
52868;SDS011;39100;53.480;6.158;2022-08-19T14:35:57;3.25;;;2.30;;
52868;SDS011;39100;53.480;6.158;2022-08-19T14:38:23;1.67;;;1.50;;
52868;SDS011;39100;53.480;6.158;2022-08-19T14:40:48;1.77;;;1.60;;
52868;SDS011;39100;53.480;6.158;2022-08-19T14:43:14;2.88;;;2.00;;
52868;SDS011;39100;53.480;6.158;2022-08-19T14:45:40;3.00;;;2.25;;
52868;SDS011;39100;53.480;6.158;2022-08-19T14:48:06;3.22;;;1.92;;
52868;SDS011;39100;53.480;6.158;2022-08-19T14:50:33;3.13;;;1.60;;
52868;SDS011;39100;53.480;6.158;2022-08-19T14:53:00;1.67;;;1.55;;
52868;SDS011;39100;53.480;6.158;2022-08-19T14:55:28;1.92;;;1.35;;
52868;SDS011;39100;53.480;6.158;2022-08-19T14:57:55;1.30;;;1.20;;
52868;SDS011;39100;53.480;6.158;2022-08-19T15:00:21;1.98;;;1.30;;
52868;SDS011;39100;53.480;6.158;2022-08-19T15:02:48;2.15;;;1.35;;
52868;SDS011;39100;53.480;6.158;2022-08-19T15:05:14;1.70;;;1.20;;
52868;SDS011;39100;53.480;6.158;2022-08-19T15:07:42;1.98;;;1.02;;
52868;SDS011;39100;53.480;6.158;2022-08-19T15:10:08;1.80;;;1.60;;
52868;SDS011;39100;53.480;6.158;2022-08-19T15:12:35;1.88;;;1.33;;
52868;SDS011;39100;53.480;6.158;2022-08-19T15:15:04;2.40;;;1.63;;
52868;SDS011;39100;53.480;6.158;2022-08-19T15:17:32;1.55;;;1.45;;